Time;durP1;ratioP1;P1;durP2;ratioP2;P2;SDS_P1;SDS_P2;PMS_P1;PMS_P2;Temp;Humidity;BMP_temperature;BMP_pressure;BME280_temperature;BME280_humidity;BME280_pressure;Samples;Min_cycle;Max_cycle;Signal;HPM_P1;HPM_P2
2022/05/14 00:01:07;;;;;;;;;;;19.90;99.90;;;;;;5072637;28;19916;-82
2022/05/14 00:03:35;;;;;;;;;;;19.90;99.90;;;;;;5072297;28;19917;-77
2022/05/14 00:06:03;;;;;;;;;;;19.90;99.90;;;;;;5072729;28;19908;-80
2022/05/14 00:08:30;;;;;;;;;;;20.00;99.90;;;;;;5072711;28;20274;-79
2022/05/14 00:13:43;;;;;;;;;;;20.10;99.90;;;;;;5072087;28;20370;-81
2022/05/14 00:16:10;;;;;;;;;;;20.10;99.90;;;;;;5072375;28;20370;-80
2022/05/14 00:18:37;;;;;;;;;;;20.10;99.90;;;;;;5072412;28;20318;-78
2022/05/14 00:21:05;;;;;;;;;;;20.10;99.90;;;;;;5072581;28;19912;-73
2022/05/14 00:23:32;;;;;;;;;;;20.10;99.90;;;;;;5072252;28;19917;-78
2022/05/14 00:25:59;;;;;;;;;;;20.10;99.90;;;;;;5072511;28;20011;-79
2022/05/14 00:28:25;;;;;;;;;;;20.20;99.90;;;;;;5072498;28;19962;-78
2022/05/14 00:30:52;;;;;;;;;;;20.20;99.90;;;;;;5072274;28;19908;-79
2022/05/14 00:33:19;;;;;;;;;;;20.30;99.90;;;;;;5072277;28;19908;-81
2022/05/14 00:35:46;;;;;;;;;;;20.30;99.90;;;;;;5072109;28;19915;-79
2022/05/14 00:38:13;;;;;;;;;;;20.30;99.90;;;;;;5072202;28;19908;-75
2022/05/14 00:40:42;;;;;;;;;;;20.30;99.90;;;;;;5072173;28;20363;-79
2022/05/14 00:43:09;;;;;;;;;;;20.30;99.90;;;;;;5072376;28;20394;-78
2022/05/14 00:45:37;;;;;;;;;;;20.40;99.90;;;;;;5072056;28;19908;-79
2022/05/14 00:48:04;;;;;;;;;;;20.60;99.90;;;;;;5072231;28;20484;-80
2022/05/14 00:50:43;;;;;;;;;;;20.60;99.90;;;;;;5071804;28;19924;-78
2022/05/14 00:53:22;;;;;;;;;;;20.80;99.90;;;;;;5072267;28;19913;-79
2022/05/14 00:55:50;;;;;;;;;;;20.70;99.90;;;;;;5071922;28;19908;-78
2022/05/14 00:58:30;;;;;;;;;;;20.80;99.90;;;;;;5072065;28;19915;-76
2022/05/14 01:00:59;;;;;;;;;;;21.10;99.90;;;;;;5072180;28;20282;-75
2022/05/14 01:03:26;;;;;;;;;;;21.40;99.90;;;;;;5071780;28;20787;-76
2022/05/14 01:05:54;;;;;;;;;;;21.60;99.90;;;;;;5071794;28;19916;-78
2022/05/14 01:08:20;;;;;;;;;;;22.00;99.90;;;;;;5072064;28;19908;-78
2022/05/14 01:10:47;;;;;;;;;;;22.40;99.90;;;;;;5071810;28;19915;-76
2022/05/14 01:13:15;;;;;;;;;;;22.80;99.90;;;;;;5071892;28;20413;-80
2022/05/14 01:15:43;;;;;;;;;;;23.10;99.90;;;;;;5071904;28;20426;-80
2022/05/14 01:18:10;;;;;;;;;;;23.00;99.90;;;;;;5071788;28;19962;-79
2022/05/14 01:20:37;;;;;;;;;;;22.80;99.90;;;;;;5071848;28;20378;-79
2022/05/14 01:23:22;;;;;;;;;;;22.90;99.90;;;;;;5071842;28;20356;-79
2022/05/14 01:28:33;;;;;;;;;;;22.70;99.90;;;;;;5075367;28;19965;-76
2022/05/14 01:31:01;;;;;;;;;;;22.50;99.90;;;;;;5075452;28;19954;-79
2022/05/14 01:33:29;;;;;;;;;;;22.40;99.90;;;;;;5075236;28;20373;-78
2022/05/14 01:35:55;;;;;;;;;;;22.30;99.90;;;;;;5075230;28;19951;-76
2022/05/14 01:38:23;;;;;;;;;;;22.40;99.90;;;;;;5075302;28;19908;-74
2022/05/14 01:40:50;;;;;;;;;;;22.40;99.90;;;;;;5075226;28;19908;-75
2022/05/14 01:43:17;;;;;;;;;;;22.30;99.90;;;;;;5075577;27;19912;-74
2022/05/14 01:45:44;;;;;;;;;;;22.30;99.90;;;;;;5074829;28;20305;-74
2022/05/14 01:48:10;;;;;;;;;;;22.40;99.90;;;;;;5075013;28;19916;-74
2022/05/14 01:50:38;;;;;;;;;;;22.30;99.90;;;;;;5074729;28;19974;-75
2022/05/14 01:53:04;;;;;;;;;;;22.30;99.90;;;;;;5074842;28;19909;-76
2022/05/14 01:55:31;;;;;;;;;;;22.40;99.90;;;;;;5074663;28;20378;-74
2022/05/14 01:57:58;;;;;;;;;;;22.40;99.90;;;;;;5074836;28;19962;-74
2022/05/14 02:00:24;;;;;;;;;;;22.40;99.90;;;;;;5074792;28;20359;-75
2022/05/14 02:02:51;;;;;;;;;;;22.30;99.90;;;;;;5074543;28;19916;-74
2022/05/14 02:05:18;;;;;;;;;;;22.20;99.90;;;;;;5074628;28;19909;-75
2022/05/14 02:07:45;;;;;;;;;;;22.10;99.90;;;;;;5074303;28;19912;-74
2022/05/14 02:10:11;;;;;;;;;;;22.30;99.90;;;;;;5074618;28;19915;-75
2022/05/14 02:12:40;;;;;;;;;;;22.50;99.90;;;;;;5074465;28;20006;-77
2022/05/14 02:15:06;;;;;;;;;;;22.60;99.90;;;;;;5074505;28;20274;-76
2022/05/14 02:17:33;;;;;;;;;;;22.40;99.90;;;;;;5074260;28;19974;-75
2022/05/14 02:20:00;;;;;;;;;;;22.50;99.90;;;;;;5074138;28;20252;-76
2022/05/14 02:22:26;;;;;;;;;;;22.60;99.90;;;;;;5074264;28;19920;-75
2022/05/14 02:24:54;;;;;;;;;;;22.70;99.90;;;;;;5074431;28;19919;-75
2022/05/14 02:27:21;;;;;;;;;;;22.60;99.90;;;;;;5074257;28;20321;-74
2022/05/14 02:29:50;;;;;;;;;;;22.60;99.90;;;;;;5074034;28;20313;-75
2022/05/14 02:32:21;;;;;;;;;;;22.50;99.90;;;;;;5074060;28;19912;-75
2022/05/14 02:34:48;;;;;;;;;;;22.50;99.90;;;;;;5073910;28;19962;-75
2022/05/14 02:37:16;;;;;;;;;;;22.50;99.90;;;;;;5073282;28;20000;-78
2022/05/14 02:39:43;;;;;;;;;;;22.40;99.90;;;;;;5073682;28;19952;-80
2022/05/14 02:42:09;;;;;;;;;;;22.50;99.90;;;;;;5073822;28;19915;-76
2022/05/14 02:44:36;;;;;;;;;;;22.50;99.90;;;;;;5073904;28;19942;-75
2022/05/14 02:47:03;;;;;;;;;;;22.40;99.90;;;;;;5073696;28;19908;-75
2022/05/14 02:49:29;;;;;;;;;;;22.30;99.90;;;;;;5073679;28;19921;-75
2022/05/14 02:51:57;;;;;;;;;;;22.40;99.90;;;;;;5073889;28;20366;-77
2022/05/14 02:54:24;;;;;;;;;;;22.20;99.90;;;;;;5073894;27;20367;-75
2022/05/14 02:56:51;;;;;;;;;;;22.20;99.90;;;;;;5073668;28;20046;-74
2022/05/14 02:59:18;;;;;;;;;;;22.10;99.90;;;;;;5073576;28;20504;-76
2022/05/14 03:01:52;;;;;;;;;;;22.10;99.90;;;;;;5073251;28;20299;-79
2022/05/14 03:04:22;;;;;;;;;;;22.10;99.90;;;;;;5073206;28;19927;-79
2022/05/14 03:06:50;;;;;;;;;;;22.00;99.90;;;;;;5073487;28;19912;-75
2022/05/14 03:09:17;;;;;;;;;;;22.00;99.90;;;;;;5073514;28;19912;-75
2022/05/14 03:11:43;;;;;;;;;;;22.00;99.90;;;;;;5073064;28;20355;-75
2022/05/14 03:14:11;;;;;;;;;;;22.10;99.90;;;;;;5073352;28;19931;-74
2022/05/14 03:16:38;;;;;;;;;;;22.10;99.90;;;;;;5073215;28;20410;-74
2022/05/14 03:19:05;;;;;;;;;;;22.30;99.90;;;;;;5073258;28;19958;-73
2022/05/14 03:21:31;;;;;;;;;;;22.30;99.90;;;;;;5073149;28;19908;-73
2022/05/14 03:23:58;;;;;;;;;;;22.30;99.90;;;;;;5073365;28;19920;-77
2022/05/14 03:26:25;;;;;;;;;;;22.30;99.90;;;;;;5073076;28;20255;-75
2022/05/14 03:28:51;;;;;;;;;;;22.30;99.90;;;;;;5072935;28;20002;-74
2022/05/14 03:31:18;;;;;;;;;;;22.30;99.90;;;;;;5073043;28;19951;-75
2022/05/14 03:33:45;;;;;;;;;;;22.40;99.90;;;;;;5072696;28;20252;-75
2022/05/14 03:36:12;;;;;;;;;;;22.40;99.90;;;;;;5072910;28;19909;-75
2022/05/14 03:38:39;;;;;;;;;;;22.40;99.90;;;;;;5072895;28;20298;-74
2022/05/14 03:41:06;;;;;;;;;;;22.30;99.90;;;;;;5072937;28;20011;-74
2022/05/14 03:43:33;;;;;;;;;;;22.30;99.90;;;;;;5072608;28;20342;-75
2022/05/14 03:46:00;;;;;;;;;;;22.40;99.90;;;;;;5105286;28;19978;-75
2022/05/14 03:48:27;;;;;;;;;;;22.30;99.90;;;;;;5071941;28;19908;-74
2022/05/14 03:50:54;;;;;;;;;;;22.20;99.90;;;;;;5072120;28;19959;-74
2022/05/14 03:53:22;;;;;;;;;;;22.20;99.90;;;;;;5072764;28;19934;-76
2022/05/14 03:55:48;;;;;;;;;;;22.10;99.90;;;;;;5072506;28;19916;-74
2022/05/14 03:58:15;;;;;;;;;;;22.10;99.90;;;;;;5072531;28;19908;-74
2022/05/14 04:00:42;;;;;;;;;;;22.10;99.90;;;;;;5072865;28;19913;-75
2022/05/14 04:03:09;;;;;;;;;;;22.00;99.90;;;;;;5072448;28;19919;-73
2022/05/14 04:05:36;;;;;;;;;;;22.00;99.90;;;;;;5072429;28;20003;-74
2022/05/14 04:08:02;;;;;;;;;;;22.00;99.90;;;;;;5072501;28;20058;-74
2022/05/14 04:10:30;;;;;;;;;;;22.00;99.90;;;;;;5072468;28;19909;-74
2022/05/14 04:12:58;;;;;;;;;;;22.10;99.90;;;;;;5072492;28;20007;-74
2022/05/14 04:15:26;;;;;;;;;;;22.10;99.90;;;;;;5072292;28;19930;-77
2022/05/14 04:17:53;;;;;;;;;;;22.20;99.90;;;;;;5072308;28;19908;-74
2022/05/14 04:20:20;;;;;;;;;;;22.20;99.90;;;;;;5072374;28;19954;-75
2022/05/14 04:22:47;;;;;;;;;;;22.20;99.90;;;;;;5072297;28;19916;-74
2022/05/14 04:25:13;;;;;;;;;;;22.20;99.90;;;;;;5072513;28;20001;-74
2022/05/14 04:27:41;;;;;;;;;;;22.20;99.90;;;;;;5072102;28;20401;-75
2022/05/14 04:30:09;;;;;;;;;;;22.20;99.90;;;;;;5072325;28;20048;-73
2022/05/14 04:32:36;;;;;;;;;;;22.20;99.90;;;;;;5072098;28;20266;-73
2022/05/14 04:35:03;;;;;;;;;;;22.20;99.90;;;;;;5072182;28;19962;-75
2022/05/14 04:37:30;;;;;;;;;;;22.20;99.90;;;;;;5072136;28;20004;-77
2022/05/14 04:39:56;;;;;;;;;;;22.20;99.90;;;;;;5072006;28;19912;-75
2022/05/14 04:42:23;;;;;;;;;;;22.30;99.90;;;;;;5071952;28;19982;-74
2022/05/14 04:44:50;;;;;;;;;;;22.30;99.90;;;;;;5080679;28;19919;-73
2022/05/14 04:47:16;;;;;;;;;;;22.30;99.90;;;;;;5094160;28;20267;-73
2022/05/14 04:49:45;;;;;;;;;;;22.30;99.90;;;;;;5078069;28;19916;-74
2022/05/14 04:52:12;;;;;;;;;;;22.30;99.90;;;;;;5071903;28;19912;-74
2022/05/14 04:54:39;;;;;;;;;;;22.30;99.90;;;;;;5071877;28;19938;-74
2022/05/14 04:57:06;;;;;;;;;;;22.40;99.90;;;;;;5104518;28;19908;-76
2022/05/14 04:59:33;;;;;;;;;;;22.40;99.90;;;;;;5071858;28;20422;-74
2022/05/14 05:04:44;;;;;;;;;;;22.40;99.90;;;;;;5075834;28;19923;-75
2022/05/14 05:07:11;;;;;;;;;;;22.30;99.90;;;;;;5075804;28;20375;-75
2022/05/14 05:09:38;;;;;;;;;;;22.30;99.90;;;;;;5075752;28;19999;-74
2022/05/14 05:12:05;;;;;;;;;;;22.30;99.90;;;;;;5075794;28;19908;-75
2022/05/14 05:14:32;;;;;;;;;;;22.30;99.90;;;;;;5075636;28;19955;-76
2022/05/14 05:16:58;;;;;;;;;;;22.20;99.90;;;;;;5108241;28;19914;-76
2022/05/14 05:19:25;;;;;;;;;;;22.20;99.90;;;;;;5075622;28;19939;-77
2022/05/14 05:21:52;;;;;;;;;;;22.20;99.90;;;;;;5075177;28;19919;-75
2022/05/14 05:24:18;;;;;;;;;;;22.20;99.90;;;;;;5075307;28;19951;-80
2022/05/14 05:26:45;;;;;;;;;;;22.10;99.90;;;;;;5075221;28;19909;-75
2022/05/14 05:29:12;;;;;;;;;;;22.10;99.90;;;;;;5075466;28;19915;-74
2022/05/14 05:31:41;;;;;;;;;;;22.10;99.90;;;;;;5113766;28;20296;-75
2022/05/14 05:34:08;;;;;;;;;;;22.10;99.90;;;;;;5116461;28;19915;-74
2022/05/14 05:36:34;;;;;;;;;;;22.10;99.90;;;;;;5116719;28;20365;-73
2022/05/14 05:39:01;;;;;;;;;;;22.10;99.90;;;;;;5116678;28;19908;-77
2022/05/14 05:41:28;;;;;;;;;;;22.10;99.90;;;;;;5116626;28;19988;-74
2022/05/14 05:43:55;;;;;;;;;;;22.10;99.90;;;;;;5116375;28;20358;-74
2022/05/14 05:46:22;;;;;;;;;;;22.10;99.90;;;;;;5116870;28;20007;-73
2022/05/14 05:48:49;;;;;;;;;;;22.00;99.90;;;;;;5116150;28;19976;-73
2022/05/14 05:51:16;;;;;;;;;;;22.00;99.90;;;;;;5116196;28;19928;-74
2022/05/14 05:56:46;;;;;;;;;;;22.00;99.90;;;;;;5116371;28;19915;-76
2022/05/14 05:59:14;;;;;;;;;;;22.00;99.90;;;;;;5116071;28;19911;-74
2022/05/14 06:01:41;;;;;;;;;;;21.90;99.90;;;;;;5115706;28;20377;-73
2022/05/14 06:04:08;;;;;;;;;;;21.90;99.90;;;;;;5115952;28;19923;-73
2022/05/14 06:06:34;;;;;;;;;;;21.90;99.90;;;;;;5116215;28;20316;-75
2022/05/14 06:09:01;;;;;;;;;;;21.80;99.90;;;;;;5115937;28;19944;-75
2022/05/14 06:11:30;;;;;;;;;;;21.70;99.90;;;;;;5115205;28;19908;-74
2022/05/14 06:13:56;;;;;;;;;;;21.70;99.90;;;;;;5115602;28;19973;-75
2022/05/14 06:16:23;;;;;;;;;;;21.70;99.90;;;;;;5115666;28;19933;-74
2022/05/14 06:18:50;;;;;;;;;;;21.60;99.90;;;;;;5115756;28;19954;-73
2022/05/14 06:21:16;;;;;;;;;;;21.60;99.90;;;;;;5114574;28;19912;-73
2022/05/14 06:23:43;;;;;;;;;;;21.60;99.90;;;;;;5115650;28;19915;-74
2022/05/14 06:26:10;;;;;;;;;;;21.60;99.90;;;;;;5115451;28;19944;-74
2022/05/14 06:28:36;;;;;;;;;;;21.60;99.90;;;;;;5115507;28;19908;-74
2022/05/14 06:31:03;;;;;;;;;;;21.50;99.90;;;;;;5115465;28;19999;-74
2022/05/14 06:33:30;;;;;;;;;;;21.50;99.90;;;;;;5114834;28;19994;-75
2022/05/14 06:35:58;;;;;;;;;;;21.50;99.90;;;;;;5115380;28;19908;-75
2022/05/14 06:38:26;;;;;;;;;;;21.40;99.90;;;;;;5115476;27;19908;-73
2022/05/14 06:40:53;;;;;;;;;;;21.40;99.90;;;;;;5115331;28;19933;-74
2022/05/14 06:43:20;;;;;;;;;;;21.40;99.90;;;;;;5115219;28;19916;-75
2022/05/14 06:45:47;;;;;;;;;;;21.30;99.90;;;;;;5115182;28;19915;-74
2022/05/14 06:48:13;;;;;;;;;;;21.30;99.90;;;;;;5115059;28;19908;-75
2022/05/14 06:50:42;;;;;;;;;;;21.30;99.90;;;;;;5114963;28;19924;-74
2022/05/14 06:53:09;;;;;;;;;;;21.30;99.90;;;;;;5115149;28;19915;-74
2022/05/14 06:55:38;;;;;;;;;;;21.30;99.90;;;;;;5114778;28;20431;-75
2022/05/14 06:58:06;;;;;;;;;;;21.20;99.90;;;;;;5115029;28;19953;-74
2022/05/14 07:00:32;;;;;;;;;;;21.20;99.90;;;;;;5115058;28;19953;-74
2022/05/14 07:08:29;;;;;;;;;;;21.10;99.90;;;;;;5115100;28;19914;-75
2022/05/14 07:10:55;;;;;;;;;;;21.10;99.90;;;;;;5114704;28;19914;-74
2022/05/14 07:13:22;;;;;;;;;;;21.10;99.90;;;;;;5114466;28;20289;-74
2022/05/14 07:15:48;;;;;;;;;;;21.00;99.90;;;;;;5114600;28;19908;-75
2022/05/14 07:18:15;;;;;;;;;;;21.00;99.90;;;;;;5114605;28;20007;-75
2022/05/14 07:20:42;;;;;;;;;;;21.00;99.90;;;;;;5114745;28;19961;-75
2022/05/14 07:23:08;;;;;;;;;;;20.90;99.90;;;;;;5114359;28;19943;-75
2022/05/14 07:25:35;;;;;;;;;;;20.90;99.90;;;;;;5113119;28;20317;-77
2022/05/14 07:28:02;;;;;;;;;;;20.90;99.90;;;;;;5114542;28;19907;-75
2022/05/14 07:30:28;;;;;;;;;;;20.90;99.90;;;;;;5114520;28;19908;-75
2022/05/14 07:32:55;;;;;;;;;;;20.90;99.90;;;;;;5114183;28;19914;-74
2022/05/14 07:35:21;;;;;;;;;;;20.90;99.90;;;;;;5114305;28;19907;-74
2022/05/14 07:37:51;;;;;;;;;;;20.80;99.90;;;;;;5114134;28;20006;-76
2022/05/14 07:40:19;;;;;;;;;;;20.80;99.90;;;;;;5114315;28;20052;-74
2022/05/14 07:43:15;;;;;;;;;;;20.80;99.90;;;;;;5114179;28;19957;-82
2022/05/14 07:45:43;;;;;;;;;;;20.80;99.90;;;;;;5100560;28;20286;-73
2022/05/14 07:48:13;;;;;;;;;;;20.80;99.90;;;;;;5112262;28;19939;-74
2022/05/14 07:50:40;;;;;;;;;;;20.80;99.90;;;;;;5111884;28;19927;-74
2022/05/14 07:53:07;;;;;;;;;;;20.80;99.90;;;;;;5111997;28;19912;-75
2022/05/14 07:55:34;;;;;;;;;;;20.70;99.90;;;;;;5111722;28;19908;-75
2022/05/14 07:58:01;;;;;;;;;;;20.70;99.90;;;;;;5111782;28;19908;-74
2022/05/14 08:00:27;;;;;;;;;;;20.70;99.90;;;;;;5111880;28;20267;-75
2022/05/14 08:02:54;;;;;;;;;;;20.70;99.90;;;;;;5111406;28;19943;-75
2022/05/14 08:05:21;;;;;;;;;;;20.70;99.90;;;;;;5111977;28;20456;-74
2022/05/14 08:07:48;;;;;;;;;;;20.60;99.90;;;;;;5111528;28;19915;-74
2022/05/14 08:10:16;;;;;;;;;;;20.60;99.90;;;;;;5111742;28;19912;-75
2022/05/14 08:12:44;;;;;;;;;;;20.60;99.90;;;;;;5111718;28;20354;-75
2022/05/14 08:15:13;;;;;;;;;;;20.60;99.90;;;;;;5111342;28;19946;-75
2022/05/14 08:17:39;;;;;;;;;;;20.60;99.90;;;;;;5111495;28;20003;-74
2022/05/14 08:20:07;;;;;;;;;;;20.60;99.90;;;;;;5111689;28;19916;-74
2022/05/14 08:25:18;;;;;;;;;;;20.60;99.90;;;;;;5111957;28;19975;-73
2022/05/14 08:27:45;;;;;;;;;;;20.60;99.90;;;;;;5111059;28;20010;-74
2022/05/14 08:30:12;;;;;;;;;;;20.60;99.90;;;;;;5095003;28;20381;-74
2022/05/14 08:32:38;;;;;;;;;;;20.60;99.90;;;;;;5070790;28;20196;-74
2022/05/14 08:35:05;;;;;;;;;;;20.60;99.90;;;;;;5071401;28;20320;-75
2022/05/14 08:37:32;;;;;;;;;;;20.60;99.90;;;;;;5074696;28;20009;-75
2022/05/14 08:39:59;;;;;;;;;;;20.50;99.90;;;;;;5075038;28;19912;-75
2022/05/14 08:42:33;;;;;;;;;;;20.60;99.90;;;;;;5074122;28;19916;-76
2022/05/14 08:45:00;;;;;;;;;;;20.50;99.90;;;;;;5074793;28;19920;-75
2022/05/14 08:47:40;;;;;;;;;;;20.50;99.90;;;;;;5074687;28;19916;-79
2022/05/14 08:50:08;;;;;;;;;;;20.50;99.90;;;;;;5074529;28;19924;-75
2022/05/14 08:52:36;;;;;;;;;;;20.50;99.90;;;;;;5074622;28;19909;-81
2022/05/14 08:55:04;;;;;;;;;;;20.50;99.90;;;;;;5074629;28;19919;-80
2022/05/14 08:57:43;;;;;;;;;;;20.50;99.90;;;;;;5073701;28;19909;-78
2022/05/14 09:00:10;;;;;;;;;;;20.50;99.90;;;;;;5074544;28;20003;-76
2022/05/14 09:02:46;;;;;;;;;;;20.50;99.90;;;;;;5074319;28;20046;-75
2022/05/14 09:05:15;;;;;;;;;;;20.50;99.90;;;;;;5075646;28;19919;-78
2022/05/14 09:07:42;;;;;;;;;;;20.50;99.90;;;;;;5076674;28;19909;-76
2022/05/14 09:10:18;;;;;;;;;;;20.50;99.90;;;;;;5076199;28;19934;-76
2022/05/14 09:12:52;;;;;;;;;;;20.50;99.90;;;;;;5076521;28;19909;-74
2022/05/14 09:15:18;;;;;;;;;;;20.50;99.90;;;;;;5076370;28;19986;-80
2022/05/14 09:17:45;;;;;;;;;;;20.50;99.90;;;;;;5076176;28;19931;-79
2022/05/14 09:20:22;;;;;;;;;;;20.40;99.90;;;;;;5076504;28;19952;-76
2022/05/14 09:22:54;;;;;;;;;;;20.40;99.90;;;;;;5076378;28;20013;-75
2022/05/14 09:25:30;;;;;;;;;;;20.50;99.90;;;;;;5076450;28;19912;-78
2022/05/14 09:28:01;;;;;;;;;;;20.50;99.90;;;;;;5076432;28;19919;-80
2022/05/14 09:30:31;;;;;;;;;;;20.50;99.90;;;;;;5076150;28;19931;-78
2022/05/14 09:32:58;;;;;;;;;;;20.50;99.90;;;;;;5076317;28;19981;-76
2022/05/14 09:35:27;;;;;;;;;;;20.40;99.90;;;;;;5076166;28;19908;-75
2022/05/14 09:38:10;;;;;;;;;;;20.40;99.90;;;;;;5076023;28;19912;-74
2022/05/14 09:40:38;;;;;;;;;;;20.40;99.90;;;;;;5076105;28;19914;-73
2022/05/14 09:43:09;;;;;;;;;;;20.40;99.90;;;;;;5076004;28;19916;-75
2022/05/14 09:45:38;;;;;;;;;;;20.40;99.90;;;;;;5075740;28;20520;-74
2022/05/14 09:48:09;;;;;;;;;;;20.40;99.90;;;;;;5075769;28;20007;-75
2022/05/14 09:50:35;;;;;;;;;;;20.40;99.90;;;;;;5075683;28;20382;-75
2022/05/14 09:53:06;;;;;;;;;;;20.40;99.90;;;;;;5075907;28;19938;-76
2022/05/14 09:55:47;;;;;;;;;;;20.40;99.90;;;;;;5075644;28;19915;-75
2022/05/14 09:58:37;;;;;;;;;;;20.40;99.90;;;;;;5074333;28;20318;-75
2022/05/14 10:01:11;;;;;;;;;;;20.40;99.90;;;;;;5075191;28;19916;-75
2022/05/14 10:03:56;;;;;;;;;;;20.40;99.90;;;;;;5074049;28;20020;-75
2022/05/14 10:06:25;;;;;;;;;;;20.40;99.90;;;;;;5075649;28;19908;-75
2022/05/14 10:09:18;;;;;;;;;;;20.40;99.90;;;;;;5075695;28;19915;-80
2022/05/14 10:11:48;;;;;;;;;;;20.40;99.90;;;;;;5066664;28;20002;-79
2022/05/14 10:14:24;;;;;;;;;;;20.40;99.90;;;;;;5075170;28;20308;-82
2022/05/14 10:17:13;;;;;;;;;;;20.40;99.90;;;;;;5075300;28;19916;-82
2022/05/14 10:19:58;;;;;;;;;;;20.40;99.90;;;;;;5075065;28;19944;-79
2022/05/14 10:28:32;;;;;;;;;;;20.40;99.90;;;;;;5075070;28;19914;-79
2022/05/14 10:30:59;;;;;;;;;;;20.40;99.90;;;;;;5107624;28;20279;-78
2022/05/14 10:33:28;;;;;;;;;;;20.30;99.90;;;;;;5075060;28;20327;-76
2022/05/14 10:35:54;;;;;;;;;;;20.40;99.90;;;;;;5074848;28;19958;-77
2022/05/14 10:38:34;;;;;;;;;;;20.30;99.90;;;;;;5075032;28;19909;-79
2022/05/14 10:41:06;;;;;;;;;;;20.40;99.90;;;;;;5075056;28;19912;-79
2022/05/14 10:43:38;;;;;;;;;;;20.30;99.90;;;;;;5074149;28;20325;-80
2022/05/14 10:46:10;;;;;;;;;;;20.30;99.90;;;;;;5074693;28;20339;-81
2022/05/14 10:48:42;;;;;;;;;;;20.30;99.90;;;;;;5074710;28;19966;-81
2022/05/14 10:51:10;;;;;;;;;;;20.20;99.90;;;;;;5074484;28;20448;-80
2022/05/14 10:53:41;;;;;;;;;;;20.20;99.90;;;;;;5074275;28;20430;-77
2022/05/14 10:56:13;;;;;;;;;;;20.10;99.90;;;;;;5074507;28;19916;-75
2022/05/14 10:58:54;;;;;;;;;;;20.10;99.90;;;;;;5073216;28;19934;-78
2022/05/14 11:01:29;;;;;;;;;;;20.10;99.90;;;;;;5074149;28;19908;-78
2022/05/14 11:04:01;;;;;;;;;;;20.10;99.90;;;;;;5074047;28;19948;-77
2022/05/14 11:06:29;;;;;;;;;;;20.10;99.90;;;;;;5074533;28;20355;-76
2022/05/14 11:08:55;;;;;;;;;;;20.00;99.90;;;;;;5074250;28;19919;-75
2022/05/14 11:11:29;;;;;;;;;;;20.00;99.90;;;;;;5074253;28;20003;-77
2022/05/14 11:13:59;;;;;;;;;;;20.00;99.90;;;;;;5073493;28;20298;-74
2022/05/14 11:16:58;;;;;;;;;;;20.00;99.90;;;;;;5074061;28;19955;-77
2022/05/14 11:19:32;;;;;;;;;;;19.90;99.90;;;;;;5061817;28;19913;-76
2022/05/14 11:21:59;;;;;;;;;;;19.90;99.90;;;;;;5073913;28;19915;-76
2022/05/14 11:24:37;;;;;;;;;;;19.90;99.90;;;;;;5073914;28;19923;-76
2022/05/14 11:27:04;;;;;;;;;;;19.90;99.90;;;;;;5073579;28;19950;-75
2022/05/14 11:29:35;;;;;;;;;;;19.90;99.90;;;;;;5073853;28;20369;-76
2022/05/14 11:32:09;;;;;;;;;;;19.90;99.90;;;;;;5073752;28;19909;-75
2022/05/14 11:34:36;;;;;;;;;;;19.90;99.90;;;;;;5073690;28;20419;-80
2022/05/14 11:37:05;;;;;;;;;;;19.90;99.90;;;;;;5073828;28;19908;-77
2022/05/14 11:39:40;;;;;;;;;;;19.90;99.90;;;;;;5073724;28;19908;-80
2022/05/14 11:42:09;;;;;;;;;;;19.90;99.90;;;;;;5073094;28;19912;-80
2022/05/14 11:44:42;;;;;;;;;;;19.90;99.90;;;;;;5073463;28;19924;-81
2022/05/14 11:47:24;;;;;;;;;;;19.90;99.90;;;;;;5073533;28;20354;-75
2022/05/14 11:49:52;;;;;;;;;;;19.90;99.90;;;;;;5073203;28;19927;-80
2022/05/14 11:52:23;;;;;;;;;;;19.90;99.90;;;;;;5073629;28;19915;-81
2022/05/14 11:54:50;;;;;;;;;;;19.90;99.90;;;;;;5073587;28;19962;-78
2022/05/14 11:57:19;;;;;;;;;;;19.90;99.90;;;;;;5073262;28;20375;-80
2022/05/14 11:59:49;;;;;;;;;;;19.90;99.90;;;;;;5073148;28;20381;-81
2022/05/14 12:02:20;;;;;;;;;;;19.80;99.90;;;;;;5073439;28;19908;-79
2022/05/14 12:04:51;;;;;;;;;;;19.80;99.90;;;;;;5073492;28;19921;-74
2022/05/14 12:07:35;;;;;;;;;;;19.80;99.90;;;;;;5073530;28;19908;-74
2022/05/14 12:10:10;;;;;;;;;;;19.70;99.90;;;;;;5072398;28;19913;-74
2022/05/14 12:12:40;;;;;;;;;;;19.80;99.90;;;;;;5073149;28;19920;-74
2022/05/14 12:15:08;;;;;;;;;;;19.80;99.90;;;;;;5073134;28;20298;-76
2022/05/14 12:17:35;;;;;;;;;;;19.70;99.90;;;;;;5073141;28;19912;-81
2022/05/14 12:20:03;;;;;;;;;;;19.70;99.90;;;;;;5073365;28;19938;-81
2022/05/14 12:22:30;;;;;;;;;;;19.70;99.90;;;;;;5072667;28;20355;-79
2022/05/14 12:25:01;;;;;;;;;;;19.70;99.90;;;;;;5073287;28;19923;-81
2022/05/14 12:27:29;;;;;;;;;;;19.70;99.90;;;;;;5073065;28;19958;-79
2022/05/14 12:30:00;;;;;;;;;;;19.70;99.90;;;;;;5073150;28;19908;-81
2022/05/14 12:35:22;;;;;;;;;;;19.70;99.90;;;;;;5073493;28;19919;-75
2022/05/14 12:37:51;;;;;;;;;;;19.70;99.90;;;;;;5072282;28;19908;-77
2022/05/14 12:40:30;;;;;;;;;;;19.80;99.90;;;;;;5073092;28;19916;-74
2022/05/14 12:42:57;;;;;;;;;;;19.80;99.90;;;;;;5072846;28;19919;-76
2022/05/14 12:45:40;;;;;;;;;;;19.80;99.90;;;;;;5072825;28;19913;-79
2022/05/14 12:48:08;;;;;;;;;;;19.80;99.90;;;;;;5072963;28;19998;-75
2022/05/14 12:50:34;;;;;;;;;;;19.80;99.90;;;;;;5072602;28;19921;-77
2022/05/14 12:53:03;;;;;;;;;;;19.70;99.90;;;;;;5072354;28;20003;-75
2022/05/14 12:55:31;;;;;;;;;;;19.80;99.90;;;;;;5072997;28;19908;-75
2022/05/14 12:57:57;;;;;;;;;;;19.80;99.90;;;;;;5072788;28;20282;-74
2022/05/14 13:00:24;;;;;;;;;;;19.80;99.90;;;;;;5072730;28;19912;-74
2022/05/14 13:02:57;;;;;;;;;;;19.90;99.90;;;;;;5072746;28;19913;-77
2022/05/14 13:05:23;;;;;;;;;;;19.90;99.90;;;;;;5072860;28;19918;-76
2022/05/14 13:07:52;;;;;;;;;;;19.90;99.90;;;;;;5072092;28;19912;-75
2022/05/14 13:10:22;;;;;;;;;;;19.80;99.90;;;;;;5072729;28;19954;-75
2022/05/14 13:12:51;;;;;;;;;;;19.70;99.90;;;;;;5072776;28;19934;-74
2022/05/14 13:15:18;;;;;;;;;;;19.80;99.90;;;;;;5072429;28;19995;-74
2022/05/14 13:17:45;;;;;;;;;;;19.80;99.90;;;;;;5072565;28;19931;-74
2022/05/14 13:20:23;;;;;;;;;;;19.70;99.90;;;;;;5072836;28;19908;-73
2022/05/14 13:22:49;;;;;;;;;;;19.70;99.90;;;;;;5075895;28;20414;-75
2022/05/14 13:25:36;;;;;;;;;;;19.60;99.90;;;;;;5076269;28;19912;-75
2022/05/14 13:28:24;;;;;;;;;;;19.60;99.90;;;;;;5076343;28;19908;-74
2022/05/14 13:30:50;;;;;;;;;;;19.70;99.90;;;;;;5076277;28;19909;-74
2022/05/14 13:33:27;;;;;;;;;;;19.70;99.90;;;;;;5076344;28;19912;-75
2022/05/14 13:38:42;;;;;;;;;;;19.60;99.90;;;;;;5076528;28;19950;-75
2022/05/14 13:41:11;;;;;;;;;;;19.60;99.90;;;;;;5076190;28;19908;-75
2022/05/14 13:43:38;;;;;;;;;;;19.60;99.90;;;;;;5075808;28;19916;-76
2022/05/14 13:46:19;;;;;;;;;;;19.50;99.90;;;;;;5075875;28;20318;-76
2022/05/14 13:48:48;;;;;;;;;;;19.50;99.90;;;;;;5076030;28;20022;-74
2022/05/14 13:51:17;;;;;;;;;;;19.50;99.90;;;;;;5075910;28;20015;-74
2022/05/14 13:53:45;;;;;;;;;;;19.50;99.90;;;;;;5075804;28;19931;-75
2022/05/14 13:56:14;;;;;;;;;;;19.60;99.90;;;;;;5075631;28;19948;-75
2022/05/14 13:58:54;;;;;;;;;;;19.50;99.90;;;;;;5075906;28;19912;-75
2022/05/14 14:01:26;;;;;;;;;;;19.60;99.90;;;;;;5075868;28;19943;-74
2022/05/14 14:03:56;;;;;;;;;;;19.60;99.90;;;;;;5075546;28;19963;-75
2022/05/14 14:06:28;;;;;;;;;;;19.50;99.90;;;;;;5075729;28;19908;-74
2022/05/14 14:08:55;;;;;;;;;;;19.50;99.90;;;;;;5075737;28;19908;-75
2022/05/14 14:11:22;;;;;;;;;;;19.50;99.90;;;;;;5075576;28;20354;-75
2022/05/14 14:13:49;;;;;;;;;;;19.50;99.90;;;;;;5075137;28;19953;-75
2022/05/14 14:16:15;;;;;;;;;;;19.40;99.90;;;;;;5075596;28;19909;-75
2022/05/14 14:18:42;;;;;;;;;;;19.40;99.90;;;;;;5075542;28;19915;-75
2022/05/14 14:21:10;;;;;;;;;;;19.40;99.90;;;;;;5075470;28;19908;-75
2022/05/14 14:23:42;;;;;;;;;;;19.50;99.90;;;;;;5074887;28;19956;-75
2022/05/14 14:26:08;;;;;;;;;;;19.50;99.90;;;;;;5075253;28;19909;-74
2022/05/14 14:28:35;;;;;;;;;;;19.50;99.90;;;;;;5075236;28;20350;-75
2022/05/14 14:31:03;;;;;;;;;;;19.50;99.90;;;;;;5075026;28;19908;-75
2022/05/14 14:33:31;;;;;;;;;;;19.50;99.90;;;;;;5073984;28;19956;-75
2022/05/14 14:35:58;;;;;;;;;;;19.60;99.90;;;;;;5075033;28;19909;-75
2022/05/14 14:38:25;;;;;;;;;;;19.50;99.90;;;;;;5075047;28;19912;-76
2022/05/14 14:40:52;;;;;;;;;;;19.50;99.90;;;;;;5075086;28;19915;-75
2022/05/14 14:43:19;;;;;;;;;;;19.50;99.90;;;;;;5074982;28;19999;-76
2022/05/14 14:45:45;;;;;;;;;;;19.50;99.90;;;;;;5074729;28;20387;-76
2022/05/14 14:48:13;;;;;;;;;;;19.50;99.90;;;;;;5074753;28;19931;-81
2022/05/14 14:50:40;;;;;;;;;;;19.50;99.90;;;;;;5074706;28;19966;-81
2022/05/14 14:53:06;;;;;;;;;;;19.50;99.90;;;;;;5074887;28;19950;-80
2022/05/14 14:55:33;;;;;;;;;;;19.50;99.90;;;;;;5074602;28;19909;-81
2022/05/14 14:58:00;;;;;;;;;;;19.50;99.90;;;;;;5074778;28;19924;-81